sensor_id;sensor_type;location;lat;lon;timestamp;temperature;humidity
85164;DHT22;75530;49.300;6.846;2024-02-26T00:03:00;29.70;99.90
85164;DHT22;75530;49.300;6.846;2024-02-26T00:06:00;29.30;99.90
85164;DHT22;75530;49.300;6.846;2024-02-26T00:09:01;28.90;99.90
85164;DHT22;75530;49.300;6.846;2024-02-26T00:12:03;28.60;99.90
85164;DHT22;75530;49.300;6.846;2024-02-26T00:15:05;28.30;99.90
85164;DHT22;75530;49.300;6.846;2024-02-26T00:18:05;27.90;99.90
85164;DHT22;75530;49.300;6.846;2024-02-26T00:21:06;27.60;99.90
85164;DHT22;75530;49.300;6.846;2024-02-26T00:24:06;27.30;99.90
85164;DHT22;75530;49.300;6.846;2024-02-26T00:27:07;27.10;99.90
85164;DHT22;75530;49.300;6.846;2024-02-26T00:30:07;26.80;99.90
85164;DHT22;75530;49.300;6.846;2024-02-26T00:33:08;26.50;99.90
85164;DHT22;75530;49.300;6.846;2024-02-26T00:36:09;26.30;99.90
85164;DHT22;75530;49.300;6.846;2024-02-26T00:39:09;26.10;99.90
85164;DHT22;75530;49.300;6.846;2024-02-26T00:42:11;25.90;99.90
85164;DHT22;75530;49.300;6.846;2024-02-26T00:45:11;25.60;99.90
85164;DHT22;75530;49.300;6.846;2024-02-26T00:48:12;25.50;99.90
85164;DHT22;75530;49.300;6.846;2024-02-26T00:51:14;25.30;99.90
85164;DHT22;75530;49.300;6.846;2024-02-26T00:54:15;25.10;99.90
85164;DHT22;75530;49.300;6.846;2024-02-26T00:57:15;24.90;99.90
85164;DHT22;75530;49.300;6.846;2024-02-26T01:00:16;24.70;99.90
85164;DHT22;75530;49.300;6.846;2024-02-26T01:03:17;24.60;99.90
85164;DHT22;75530;49.300;6.846;2024-02-26T01:06:17;24.40;99.90
85164;DHT22;75530;49.300;6.846;2024-02-26T01:09:18;24.20;99.90
85164;DHT22;75530;49.300;6.846;2024-02-26T01:12:19;24.10;99.90
85164;DHT22;75530;49.300;6.846;2024-02-26T01:15:19;24.00;99.90
85164;DHT22;75530;49.300;6.846;2024-02-26T01:18:23;23.80;99.90
85164;DHT22;75530;49.300;6.846;2024-02-26T01:21:24;23.70;99.90
85164;DHT22;75530;49.300;6.846;2024-02-26T01:24:25;23.60;99.90
85164;DHT22;75530;49.300;6.846;2024-02-26T01:27:25;23.40;99.90
85164;DHT22;75530;49.300;6.846;2024-02-26T01:30:27;23.40;99.90
85164;DHT22;75530;49.300;6.846;2024-02-26T01:33:28;23.20;99.90
85164;DHT22;75530;49.300;6.846;2024-02-26T01:36:28;23.10;99.90
85164;DHT22;75530;49.300;6.846;2024-02-26T01:39:28;23.00;99.90
85164;DHT22;75530;49.300;6.846;2024-02-26T01:42:30;26.30;99.90
85164;DHT22;75530;49.300;6.846;2024-02-26T01:45:32;34.50;99.90
85164;DHT22;75530;49.300;6.846;2024-02-26T01:48:33;40.80;99.90
85164;DHT22;75530;49.300;6.846;2024-02-26T01:51:33;39.50;99.90
85164;DHT22;75530;49.300;6.846;2024-02-26T01:54:35;38.50;99.90
85164;DHT22;75530;49.300;6.846;2024-02-26T01:57:35;37.60;99.90
85164;DHT22;75530;49.300;6.846;2024-02-26T02:00:36;36.90;99.90
85164;DHT22;75530;49.300;6.846;2024-02-26T02:03:37;36.20;99.90
85164;DHT22;75530;49.300;6.846;2024-02-26T02:06:37;35.40;99.90
85164;DHT22;75530;49.300;6.846;2024-02-26T02:09:38;34.80;99.90
85164;DHT22;75530;49.300;6.846;2024-02-26T02:12:39;34.20;99.90
85164;DHT22;75530;49.300;6.846;2024-02-26T02:15:40;33.60;99.90
85164;DHT22;75530;49.300;6.846;2024-02-26T02:18:40;33.00;99.90
85164;DHT22;75530;49.300;6.846;2024-02-26T02:21:41;32.50;99.90
85164;DHT22;75530;49.300;6.846;2024-02-26T02:24:41;32.00;99.90
85164;DHT22;75530;49.300;6.846;2024-02-26T02:27:42;31.50;99.90
85164;DHT22;75530;49.300;6.846;2024-02-26T02:30:43;31.10;99.90
85164;DHT22;75530;49.300;6.846;2024-02-26T02:33:43;30.60;99.90
85164;DHT22;75530;49.300;6.846;2024-02-26T02:36:53;30.20;99.90
85164;DHT22;75530;49.300;6.846;2024-02-26T02:39:54;29.80;99.90
85164;DHT22;75530;49.300;6.846;2024-02-26T02:42:55;29.30;99.90
85164;DHT22;75530;49.300;6.846;2024-02-26T02:45:55;28.90;99.90
85164;DHT22;75530;49.300;6.846;2024-02-26T02:48:56;28.60;99.90
85164;DHT22;75530;49.300;6.846;2024-02-26T02:51:56;28.30;99.90
85164;DHT22;75530;49.300;6.846;2024-02-26T02:54:58;27.90;99.90
85164;DHT22;75530;49.300;6.846;2024-02-26T02:57:58;27.70;99.90
85164;DHT22;75530;49.300;6.846;2024-02-26T03:00:58;27.30;99.90
85164;DHT22;75530;49.300;6.846;2024-02-26T03:04:00;27.10;99.90
85164;DHT22;75530;49.300;6.846;2024-02-26T03:07:00;26.80;99.90
85164;DHT22;75530;49.300;6.846;2024-02-26T03:10:01;26.50;99.90
85164;DHT22;75530;49.300;6.846;2024-02-26T03:13:01;26.30;99.90
85164;DHT22;75530;49.300;6.846;2024-02-26T03:16:06;26.00;99.90
85164;DHT22;75530;49.300;6.846;2024-02-26T03:19:06;25.80;99.90
85164;DHT22;75530;49.300;6.846;2024-02-26T03:22:07;25.60;99.90
85164;DHT22;75530;49.300;6.846;2024-02-26T03:25:07;25.40;99.90
85164;DHT22;75530;49.300;6.846;2024-02-26T03:28:08;25.20;99.90
85164;DHT22;75530;49.300;6.846;2024-02-26T03:31:08;25.00;99.90
85164;DHT22;75530;49.300;6.846;2024-02-26T03:34:10;24.80;99.90
85164;DHT22;75530;49.300;6.846;2024-02-26T03:37:12;24.60;99.90
85164;DHT22;75530;49.300;6.846;2024-02-26T03:40:13;24.50;99.90
85164;DHT22;75530;49.300;6.846;2024-02-26T03:43:14;24.40;99.90
85164;DHT22;75530;49.300;6.846;2024-02-26T03:46:15;24.20;99.90
85164;DHT22;75530;49.300;6.846;2024-02-26T03:49:16;24.00;99.90
85164;DHT22;75530;49.300;6.846;2024-02-26T03:52:16;23.90;99.90
85164;DHT22;75530;49.300;6.846;2024-02-26T03:55:17;23.80;99.90
85164;DHT22;75530;49.300;6.846;2024-02-26T03:58:21;23.60;99.90
85164;DHT22;75530;49.300;6.846;2024-02-26T04:01:21;23.50;99.90
85164;DHT22;75530;49.300;6.846;2024-02-26T04:04:22;23.40;99.90
85164;DHT22;75530;49.300;6.846;2024-02-26T04:07:23;25.90;99.90
85164;DHT22;75530;49.300;6.846;2024-02-26T04:10:23;33.70;99.90
85164;DHT22;75530;49.300;6.846;2024-02-26T04:13:23;40.50;99.90
85164;DHT22;75530;49.300;6.846;2024-02-26T04:16:24;39.80;99.90
85164;DHT22;75530;49.300;6.846;2024-02-26T04:19:25;38.70;99.90
85164;DHT22;75530;49.300;6.846;2024-02-26T04:22:26;38.00;99.90
85164;DHT22;75530;49.300;6.846;2024-02-26T04:25:26;37.20;99.90
85164;DHT22;75530;49.300;6.846;2024-02-26T04:28:27;36.60;99.90
85164;DHT22;75530;49.300;6.846;2024-02-26T04:31:30;35.90;99.90
85164;DHT22;75530;49.300;6.846;2024-02-26T04:34:33;35.20;99.90
85164;DHT22;75530;49.300;6.846;2024-02-26T04:37:33;34.50;99.90
85164;DHT22;75530;49.300;6.846;2024-02-26T04:40:34;34.00;99.90
85164;DHT22;75530;49.300;6.846;2024-02-26T04:43:34;40.90;99.90
85164;DHT22;75530;49.300;6.846;2024-02-26T04:46:35;53.10;99.90
85164;DHT22;75530;49.300;6.846;2024-02-26T04:49:35;56.00;99.90
85164;DHT22;75530;49.300;6.846;2024-02-26T04:52:36;53.60;99.90
85164;DHT22;75530;49.300;6.846;2024-02-26T04:55:37;51.20;99.90
85164;DHT22;75530;49.300;6.846;2024-02-26T04:58:37;54.50;99.90
85164;DHT22;75530;49.300;6.846;2024-02-26T05:01:38;56.40;99.90
85164;DHT22;75530;49.300;6.846;2024-02-26T05:04:39;54.10;99.90
85164;DHT22;75530;49.300;6.846;2024-02-26T05:07:40;51.50;99.90
85164;DHT22;75530;49.300;6.846;2024-02-26T05:10:41;54.10;99.90
85164;DHT22;75530;49.300;6.846;2024-02-26T05:13:43;56.70;99.90
85164;DHT22;75530;49.300;6.846;2024-02-26T05:16:45;55.20;99.90
85164;DHT22;75530;49.300;6.846;2024-02-26T05:19:46;52.80;99.90
85164;DHT22;75530;49.300;6.846;2024-02-26T05:22:46;51.10;99.90
85164;DHT22;75530;49.300;6.846;2024-02-26T05:25:48;54.70;99.90
85164;DHT22;75530;49.300;6.846;2024-02-26T05:28:49;56.10;99.90
85164;DHT22;75530;49.300;6.846;2024-02-26T05:31:49;54.20;99.90
85164;DHT22;75530;49.300;6.846;2024-02-26T05:34:50;51.50;99.90
85164;DHT22;75530;49.300;6.846;2024-02-26T05:37:50;52.70;99.90
85164;DHT22;75530;49.300;6.846;2024-02-26T05:40:51;56.50;99.90
85164;DHT22;75530;49.300;6.846;2024-02-26T05:43:53;55.80;99.90
85164;DHT22;75530;49.300;6.846;2024-02-26T05:46:54;53.70;99.90
85164;DHT22;75530;49.300;6.846;2024-02-26T05:49:54;51.60;99.90
85164;DHT22;75530;49.300;6.846;2024-02-26T05:52:55;53.50;99.90
85164;DHT22;75530;49.300;6.846;2024-02-26T05:55:55;58.80;99.90
85164;DHT22;75530;49.300;6.846;2024-02-26T05:58:56;47.60;99.90
85164;DHT22;75530;49.300;6.846;2024-02-26T06:01:56;42.60;99.90
85164;DHT22;75530;49.300;6.846;2024-02-26T06:04:57;41.10;99.90
85164;DHT22;75530;49.300;6.846;2024-02-26T06:07:58;40.20;99.90
85164;DHT22;75530;49.300;6.846;2024-02-26T06:10:58;39.40;99.90
85164;DHT22;75530;49.300;6.846;2024-02-26T06:13:59;38.60;99.90
85164;DHT22;75530;49.300;6.846;2024-02-26T06:16:59;37.80;99.90
85164;DHT22;75530;49.300;6.846;2024-02-26T06:20:00;37.00;99.90
85164;DHT22;75530;49.300;6.846;2024-02-26T06:23:00;36.10;99.90
85164;DHT22;75530;49.300;6.846;2024-02-26T06:26:01;35.50;99.90
85164;DHT22;75530;49.300;6.846;2024-02-26T06:29:01;41.10;99.90
85164;DHT22;75530;49.300;6.846;2024-02-26T06:32:02;43.20;99.90
85164;DHT22;75530;49.300;6.846;2024-02-26T06:35:02;40.10;99.90
85164;DHT22;75530;49.300;6.846;2024-02-26T06:38:06;38.30;99.90
85164;DHT22;75530;49.300;6.846;2024-02-26T06:41:08;37.40;99.90
85164;DHT22;75530;49.300;6.846;2024-02-26T06:44:09;36.70;99.90
85164;DHT22;75530;49.300;6.846;2024-02-26T06:47:09;36.10;99.90
85164;DHT22;75530;49.300;6.846;2024-02-26T06:50:13;35.90;99.90
85164;DHT22;75530;49.300;6.846;2024-02-26T06:53:16;42.50;99.90
85164;DHT22;75530;49.300;6.846;2024-02-26T06:56:17;41.80;99.90
85164;DHT22;75530;49.300;6.846;2024-02-26T06:59:17;39.10;99.90
85164;DHT22;75530;49.300;6.846;2024-02-26T07:02:18;37.90;99.90
85164;DHT22;75530;49.300;6.846;2024-02-26T07:05:19;37.30;99.90
85164;DHT22;75530;49.300;6.846;2024-02-26T07:08:19;36.60;99.90
85164;DHT22;75530;49.300;6.846;2024-02-26T07:11:21;35.90;99.90
85164;DHT22;75530;49.300;6.846;2024-02-26T07:14:22;36.60;99.90
85164;DHT22;75530;49.300;6.846;2024-02-26T07:17:22;43.00;99.90
85164;DHT22;75530;49.300;6.846;2024-02-26T07:20:23;41.00;99.90
85164;DHT22;75530;49.300;6.846;2024-02-26T07:23:24;38.80;99.90
85164;DHT22;75530;49.300;6.846;2024-02-26T07:26:25;37.80;99.90
85164;DHT22;75530;49.300;6.846;2024-02-26T07:29:26;37.20;99.90
85164;DHT22;75530;49.300;6.846;2024-02-26T07:32:26;36.40;99.90
85164;DHT22;75530;49.300;6.846;2024-02-26T07:35:27;35.70;99.90
85164;DHT22;75530;49.300;6.846;2024-02-26T07:38:28;35.90;99.90
85164;DHT22;75530;49.300;6.846;2024-02-26T07:41:28;42.60;99.90
85164;DHT22;75530;49.300;6.846;2024-02-26T07:44:29;41.10;99.90
85164;DHT22;75530;49.300;6.846;2024-02-26T07:47:29;38.70;99.90
85164;DHT22;75530;49.300;6.846;2024-02-26T07:50:30;37.90;99.90
85164;DHT22;75530;49.300;6.846;2024-02-26T07:53:30;37.10;99.90
85164;DHT22;75530;49.300;6.846;2024-02-26T07:56:31;36.40;99.90
85164;DHT22;75530;49.300;6.846;2024-02-26T07:59:31;35.80;99.90
85164;DHT22;75530;49.300;6.846;2024-02-26T08:02:32;35.10;99.90
85164;DHT22;75530;49.300;6.846;2024-02-26T08:05:34;37.00;99.90
85164;DHT22;75530;49.300;6.846;2024-02-26T08:08:34;42.80;99.90
85164;DHT22;75530;49.300;6.846;2024-02-26T08:11:35;40.20;99.90
85164;DHT22;75530;49.300;6.846;2024-02-26T08:14:35;38.20;99.90
85164;DHT22;75530;49.300;6.846;2024-02-26T08:17:36;37.50;99.90
85164;DHT22;75530;49.300;6.846;2024-02-26T08:20:36;36.80;99.90
85164;DHT22;75530;49.300;6.846;2024-02-26T08:23:37;36.10;99.90
85164;DHT22;75530;49.300;6.846;2024-02-26T08:26:38;35.40;99.90
85164;DHT22;75530;49.300;6.846;2024-02-26T08:29:38;34.80;99.90
85164;DHT22;75530;49.300;6.846;2024-02-26T08:32:38;34.30;99.90
85164;DHT22;75530;49.300;6.846;2024-02-26T08:35:39;40.90;99.90
85164;DHT22;75530;49.300;6.846;2024-02-26T08:38:39;41.70;99.90
85164;DHT22;75530;49.300;6.846;2024-02-26T08:41:40;38.80;99.90
85164;DHT22;75530;49.300;6.846;2024-02-26T08:44:40;37.60;99.90
85164;DHT22;75530;49.300;6.846;2024-02-26T08:47:41;37.00;99.90
85164;DHT22;75530;49.300;6.846;2024-02-26T08:50:41;36.40;99.90
85164;DHT22;75530;49.300;6.846;2024-02-26T08:53:42;35.70;99.90
85164;DHT22;75530;49.300;6.846;2024-02-26T08:56:42;35.00;99.90
85164;DHT22;75530;49.300;6.846;2024-02-26T08:59:42;34.30;99.90
85164;DHT22;75530;49.300;6.846;2024-02-26T09:02:43;33.70;99.90
85164;DHT22;75530;49.300;6.846;2024-02-26T09:05:44;38.20;99.90
85164;DHT22;75530;49.300;6.846;2024-02-26T09:08:44;42.20;99.90
85164;DHT22;75530;49.300;6.846;2024-02-26T09:11:45;39.20;99.90
85164;DHT22;75530;49.300;6.846;2024-02-26T09:14:45;37.70;99.90
85164;DHT22;75530;49.300;6.846;2024-02-26T09:17:46;37.10;99.90
85164;DHT22;75530;49.300;6.846;2024-02-26T09:20:46;36.40;99.90
85164;DHT22;75530;49.300;6.846;2024-02-26T09:23:47;35.70;99.90
85164;DHT22;75530;49.300;6.846;2024-02-26T09:26:47;35.00;99.90
85164;DHT22;75530;49.300;6.846;2024-02-26T09:29:47;34.30;99.90
85164;DHT22;75530;49.300;6.846;2024-02-26T09:32:48;33.70;99.90
85164;DHT22;75530;49.300;6.846;2024-02-26T09:35:48;33.10;99.90
85164;DHT22;75530;49.300;6.846;2024-02-26T09:38:49;34.30;99.90
85164;DHT22;75530;49.300;6.846;2024-02-26T09:41:50;41.70;99.90
85164;DHT22;75530;49.300;6.846;2024-02-26T09:44:51;39.70;99.90
85164;DHT22;75530;49.300;6.846;2024-02-26T09:47:52;37.80;99.90
85164;DHT22;75530;49.300;6.846;2024-02-26T09:50:55;37.30;99.90
85164;DHT22;75530;49.300;6.846;2024-02-26T09:53:56;36.70;99.90
85164;DHT22;75530;49.300;6.846;2024-02-26T09:57:00;36.10;99.90
85164;DHT22;75530;49.300;6.846;2024-02-26T10:00:06;35.40;99.90
85164;DHT22;75530;49.300;6.846;2024-02-26T10:03:09;34.80;99.90
85164;DHT22;75530;49.300;6.846;2024-02-26T10:06:13;34.20;99.90
85164;DHT22;75530;49.300;6.846;2024-02-26T10:09:14;33.70;99.90
85164;DHT22;75530;49.300;6.846;2024-02-26T10:12:16;33.20;99.90
85164;DHT22;75530;49.300;6.846;2024-02-26T10:15:17;32.70;99.90
85164;DHT22;75530;49.300;6.846;2024-02-26T10:18:17;32.30;99.90
85164;DHT22;75530;49.300;6.846;2024-02-26T10:21:19;31.90;99.90
85164;DHT22;75530;49.300;6.846;2024-02-26T10:24:20;32.50;99.90
85164;DHT22;75530;49.300;6.846;2024-02-26T10:27:20;40.90;99.90
85164;DHT22;75530;49.300;6.846;2024-02-26T10:30:21;40.40;99.90
85164;DHT22;75530;49.300;6.846;2024-02-26T10:33:22;38.00;99.90
85164;DHT22;75530;49.300;6.846;2024-02-26T10:36:23;37.50;99.90
85164;DHT22;75530;49.300;6.846;2024-02-26T10:39:26;37.10;99.90
85164;DHT22;75530;49.300;6.846;2024-02-26T10:42:26;36.60;99.90
85164;DHT22;75530;49.300;6.846;2024-02-26T10:45:27;36.10;99.90
85164;DHT22;75530;49.300;6.846;2024-02-26T10:48:27;35.60;99.90
85164;DHT22;75530;49.300;6.846;2024-02-26T10:51:29;35.10;99.90
85164;DHT22;75530;49.300;6.846;2024-02-26T10:54:29;34.60;99.90
85164;DHT22;75530;49.300;6.846;2024-02-26T10:57:38;34.10;99.90
85164;DHT22;75530;49.300;6.846;2024-02-26T11:00:40;33.60;99.90
85164;DHT22;75530;49.300;6.846;2024-02-26T11:03:40;33.10;99.90
85164;DHT22;75530;49.300;6.846;2024-02-26T11:06:42;32.60;99.90
85164;DHT22;75530;49.300;6.846;2024-02-26T11:09:42;32.20;99.90
85164;DHT22;75530;49.300;6.846;2024-02-26T11:12:46;31.80;99.90
85164;DHT22;75530;49.300;6.846;2024-02-26T11:15:48;31.50;99.90
85164;DHT22;75530;49.300;6.846;2024-02-26T11:18:48;31.00;99.90
85164;DHT22;75530;49.300;6.846;2024-02-26T11:21:49;34.80;99.90
85164;DHT22;75530;49.300;6.846;2024-02-26T11:24:49;41.90;99.90
85164;DHT22;75530;49.300;6.846;2024-02-26T11:27:51;39.00;99.90
85164;DHT22;75530;49.300;6.846;2024-02-26T11:30:52;37.50;99.90
85164;DHT22;75530;49.300;6.846;2024-02-26T11:33:53;37.10;99.90
85164;DHT22;75530;49.300;6.846;2024-02-26T11:36:54;36.60;99.90
85164;DHT22;75530;49.300;6.846;2024-02-26T11:39:56;36.10;99.90
85164;DHT22;75530;49.300;6.846;2024-02-26T11:42:59;35.60;99.90
85164;DHT22;75530;49.300;6.846;2024-02-26T11:45:59;35.00;99.90
85164;DHT22;75530;49.300;6.846;2024-02-26T11:49:03;34.40;99.90
85164;DHT22;75530;49.300;6.846;2024-02-26T11:52:23;34.00;99.90
85164;DHT22;75530;49.300;6.846;2024-02-26T11:55:33;42.70;99.90
85164;DHT22;75530;49.300;6.846;2024-02-26T11:58:33;54.00;99.90
85164;DHT22;75530;49.300;6.846;2024-02-26T12:01:44;55.70;99.90
85164;DHT22;75530;49.300;6.846;2024-02-26T12:04:45;53.30;99.90
85164;DHT22;75530;49.300;6.846;2024-02-26T12:07:46;51.60;99.90
85164;DHT22;75530;49.300;6.846;2024-02-26T12:10:47;55.70;99.90
85164;DHT22;75530;49.300;6.846;2024-02-26T12:13:49;56.60;99.90
85164;DHT22;75530;49.300;6.846;2024-02-26T12:16:52;54.50;99.90
85164;DHT22;75530;49.300;6.846;2024-02-26T12:19:53;52.10;99.90
85164;DHT22;75530;49.300;6.846;2024-02-26T12:22:54;52.50;99.90
85164;DHT22;75530;49.300;6.846;2024-02-26T12:25:59;56.50;99.90
85164;DHT22;75530;49.300;6.846;2024-02-26T12:29:00;56.20;99.90
85164;DHT22;75530;49.300;6.846;2024-02-26T12:32:00;54.40;99.90
85164;DHT22;75530;49.300;6.846;2024-02-26T12:35:01;52.10;99.90
85164;DHT22;75530;49.300;6.846;2024-02-26T12:38:02;42.10;99.90
85164;DHT22;75530;49.300;6.846;2024-02-26T12:41:04;39.60;99.90
85164;DHT22;75530;49.300;6.846;2024-02-26T12:44:04;38.50;99.90
85164;DHT22;75530;49.300;6.846;2024-02-26T12:47:07;37.70;99.90
85164;DHT22;75530;49.300;6.846;2024-02-26T12:50:08;36.90;99.90
85164;DHT22;75530;49.300;6.846;2024-02-26T12:53:08;36.10;99.90
85164;DHT22;75530;49.300;6.846;2024-02-26T12:56:09;35.30;99.90
85164;DHT22;75530;49.300;6.846;2024-02-26T12:59:10;34.60;99.90
85164;DHT22;75530;49.300;6.846;2024-02-26T13:02:10;34.00;99.90
85164;DHT22;75530;49.300;6.846;2024-02-26T13:05:11;33.40;99.90
85164;DHT22;75530;49.300;6.846;2024-02-26T13:08:19;32.90;99.90
85164;DHT22;75530;49.300;6.846;2024-02-26T13:11:20;32.40;99.90
85164;DHT22;75530;49.300;6.846;2024-02-26T13:14:20;31.90;99.90
85164;DHT22;75530;49.300;6.846;2024-02-26T13:17:21;31.50;99.90
85164;DHT22;75530;49.300;6.846;2024-02-26T13:20:33;31.10;99.90
85164;DHT22;75530;49.300;6.846;2024-02-26T13:23:34;30.70;99.90
85164;DHT22;75530;49.300;6.846;2024-02-26T13:26:35;30.30;99.90
85164;DHT22;75530;49.300;6.846;2024-02-26T13:29:35;29.90;99.90
85164;DHT22;75530;49.300;6.846;2024-02-26T13:32:36;33.60;99.90
85164;DHT22;75530;49.300;6.846;2024-02-26T13:35:37;41.70;99.90
85164;DHT22;75530;49.300;6.846;2024-02-26T13:38:39;39.00;99.90
85164;DHT22;75530;49.300;6.846;2024-02-26T13:41:39;37.20;99.90
85164;DHT22;75530;49.300;6.846;2024-02-26T13:44:41;36.80;99.90
85164;DHT22;75530;49.300;6.846;2024-02-26T13:47:42;36.30;99.90
85164;DHT22;75530;49.300;6.846;2024-02-26T13:50:42;35.80;99.90
85164;DHT22;75530;49.300;6.846;2024-02-26T13:53:43;35.20;99.90
85164;DHT22;75530;49.300;6.846;2024-02-26T13:56:43;34.60;99.90
85164;DHT22;75530;49.300;6.846;2024-02-26T13:59:44;34.00;99.90
85164;DHT22;75530;49.300;6.846;2024-02-26T14:02:45;33.50;99.90
85164;DHT22;75530;49.300;6.846;2024-02-26T14:05:45;32.90;99.90
85164;DHT22;75530;49.300;6.846;2024-02-26T14:08:46;32.40;99.90
85164;DHT22;75530;49.300;6.846;2024-02-26T14:11:46;31.90;99.90
85164;DHT22;75530;49.300;6.846;2024-02-26T14:14:47;31.40;99.90
85164;DHT22;75530;49.300;6.846;2024-02-26T14:17:49;31.00;99.90
85164;DHT22;75530;49.300;6.846;2024-02-26T14:20:54;30.50;99.90
85164;DHT22;75530;49.300;6.846;2024-02-26T14:23:55;30.10;99.90
85164;DHT22;75530;49.300;6.846;2024-02-26T14:26:56;35.30;99.90
85164;DHT22;75530;49.300;6.846;2024-02-26T14:29:56;41.50;99.90
85164;DHT22;75530;49.300;6.846;2024-02-26T14:32:56;38.30;99.90
85164;DHT22;75530;49.300;6.846;2024-02-26T14:35:57;37.00;99.90
85164;DHT22;75530;49.300;6.846;2024-02-26T14:38:58;36.50;99.90
85164;DHT22;75530;49.300;6.846;2024-02-26T14:41:58;35.90;99.90
85164;DHT22;75530;49.300;6.846;2024-02-26T14:44:59;35.30;99.90
85164;DHT22;75530;49.300;6.846;2024-02-26T14:48:00;34.70;99.90
85164;DHT22;75530;49.300;6.846;2024-02-26T14:51:00;34.10;99.90
85164;DHT22;75530;49.300;6.846;2024-02-26T14:54:00;33.50;99.90
85164;DHT22;75530;49.300;6.846;2024-02-26T14:57:03;33.00;99.90
85164;DHT22;75530;49.300;6.846;2024-02-26T15:00:04;32.40;99.90
85164;DHT22;75530;49.300;6.846;2024-02-26T15:03:05;31.90;99.90
85164;DHT22;75530;49.300;6.846;2024-02-26T15:06:06;31.50;99.90
85164;DHT22;75530;49.300;6.846;2024-02-26T15:09:08;31.00;99.90
85164;DHT22;75530;49.300;6.846;2024-02-26T15:12:08;30.50;99.90
85164;DHT22;75530;49.300;6.846;2024-02-26T15:15:09;31.10;99.90
85164;DHT22;75530;49.300;6.846;2024-02-26T15:18:10;39.80;99.90
85164;DHT22;75530;49.300;6.846;2024-02-26T15:21:15;40.20;99.90
85164;DHT22;75530;49.300;6.846;2024-02-26T15:24:17;37.40;99.90
85164;DHT22;75530;49.300;6.846;2024-02-26T15:27:17;36.70;99.90
85164;DHT22;75530;49.300;6.846;2024-02-26T15:30:18;36.10;99.90
85164;DHT22;75530;49.300;6.846;2024-02-26T15:33:18;35.50;99.90
85164;DHT22;75530;49.300;6.846;2024-02-26T15:36:19;34.90;99.90
85164;DHT22;75530;49.300;6.846;2024-02-26T15:39:19;34.20;99.90
85164;DHT22;75530;49.300;6.846;2024-02-26T15:42:21;33.60;99.90
85164;DHT22;75530;49.300;6.846;2024-02-26T15:45:21;33.00;99.90
85164;DHT22;75530;49.300;6.846;2024-02-26T15:48:24;32.50;99.90
85164;DHT22;75530;49.300;6.846;2024-02-26T15:51:25;31.90;99.90
85164;DHT22;75530;49.300;6.846;2024-02-26T15:54:25;31.40;99.90
85164;DHT22;75530;49.300;6.846;2024-02-26T15:57:26;31.00;99.90
85164;DHT22;75530;49.300;6.846;2024-02-26T16:00:26;32.30;99.90
85164;DHT22;75530;49.300;6.846;2024-02-26T16:03:27;41.00;99.90
85164;DHT22;75530;49.300;6.846;2024-02-26T16:06:29;39.80;99.90
85164;DHT22;75530;49.300;6.846;2024-02-26T16:09:30;37.40;99.90
85164;DHT22;75530;49.300;6.846;2024-02-26T16:12:38;36.70;99.90
85164;DHT22;75530;49.300;6.846;2024-02-26T16:15:40;36.10;99.90
85164;DHT22;75530;49.300;6.846;2024-02-26T16:18:42;35.50;99.90
85164;DHT22;75530;49.300;6.846;2024-02-26T16:21:43;34.80;99.90
85164;DHT22;75530;49.300;6.846;2024-02-26T16:24:44;34.20;99.90
85164;DHT22;75530;49.300;6.846;2024-02-26T16:27:44;33.60;99.90
85164;DHT22;75530;49.300;6.846;2024-02-26T16:30:45;33.10;99.90
85164;DHT22;75530;49.300;6.846;2024-02-26T16:33:45;32.50;99.90
85164;DHT22;75530;49.300;6.846;2024-02-26T16:36:45;32.00;99.90
85164;DHT22;75530;49.300;6.846;2024-02-26T16:39:46;31.60;99.90
85164;DHT22;75530;49.300;6.846;2024-02-26T16:42:46;38.10;99.90
85164;DHT22;75530;49.300;6.846;2024-02-26T16:45:47;41.20;99.90
85164;DHT22;75530;49.300;6.846;2024-02-26T16:48:48;38.20;99.90
85164;DHT22;75530;49.300;6.846;2024-02-26T16:51:51;37.10;99.90
85164;DHT22;75530;49.300;6.846;2024-02-26T16:54:51;36.60;99.90
85164;DHT22;75530;49.300;6.846;2024-02-26T16:57:53;35.90;99.90
85164;DHT22;75530;49.300;6.846;2024-02-26T17:00:53;35.30;99.90
85164;DHT22;75530;49.300;6.846;2024-02-26T17:03:54;34.70;99.90
85164;DHT22;75530;49.300;6.846;2024-02-26T17:06:54;34.10;99.90
85164;DHT22;75530;49.300;6.846;2024-02-26T17:09:55;33.50;99.90
85164;DHT22;75530;49.300;6.846;2024-02-26T17:12:56;32.90;99.90
85164;DHT22;75530;49.300;6.846;2024-02-26T17:15:56;32.30;99.90
85164;DHT22;75530;49.300;6.846;2024-02-26T17:18:56;36.50;99.90
85164;DHT22;75530;49.300;6.846;2024-02-26T17:21:57;41.70;99.90
85164;DHT22;75530;49.300;6.846;2024-02-26T17:24:57;38.90;99.90
85164;DHT22;75530;49.300;6.846;2024-02-26T17:27:58;37.50;99.90
85164;DHT22;75530;49.300;6.846;2024-02-26T17:30:59;36.80;99.90
85164;DHT22;75530;49.300;6.846;2024-02-26T17:33:59;36.20;99.90
85164;DHT22;75530;49.300;6.846;2024-02-26T17:37:00;35.60;99.90
85164;DHT22;75530;49.300;6.846;2024-02-26T17:40:00;34.90;99.90
85164;DHT22;75530;49.300;6.846;2024-02-26T17:43:02;34.30;99.90
85164;DHT22;75530;49.300;6.846;2024-02-26T17:46:02;33.70;99.90
85164;DHT22;75530;49.300;6.846;2024-02-26T17:49:03;33.10;99.90
85164;DHT22;75530;49.300;6.846;2024-02-26T17:52:03;32.50;99.90
85164;DHT22;75530;49.300;6.846;2024-02-26T17:55:04;36.60;99.90
85164;DHT22;75530;49.300;6.846;2024-02-26T17:58:05;41.90;99.90
85164;DHT22;75530;49.300;6.846;2024-02-26T18:01:06;38.90;99.90
85164;DHT22;75530;49.300;6.846;2024-02-26T18:04:06;37.50;99.90
85164;DHT22;75530;49.300;6.846;2024-02-26T18:07:06;36.90;99.90
85164;DHT22;75530;49.300;6.846;2024-02-26T18:10:08;36.30;99.90
85164;DHT22;75530;49.300;6.846;2024-02-26T18:13:09;35.70;99.90
85164;DHT22;75530;49.300;6.846;2024-02-26T18:16:09;35.10;99.90
85164;DHT22;75530;49.300;6.846;2024-02-26T18:19:10;34.60;99.90
85164;DHT22;75530;49.300;6.846;2024-02-26T18:22:10;34.00;99.90
85164;DHT22;75530;49.300;6.846;2024-02-26T18:25:11;33.50;99.90
85164;DHT22;75530;49.300;6.846;2024-02-26T18:28:11;33.00;99.90
85164;DHT22;75530;49.300;6.846;2024-02-26T18:31:12;33.20;99.90
85164;DHT22;75530;49.300;6.846;2024-02-26T18:34:13;41.00;99.90
85164;DHT22;75530;49.300;6.846;2024-02-26T18:37:13;41.10;99.90
85164;DHT22;75530;49.300;6.846;2024-02-26T18:40:14;38.60;99.90
85164;DHT22;75530;49.300;6.846;2024-02-26T18:43:14;38.00;99.90
85164;DHT22;75530;49.300;6.846;2024-02-26T18:46:15;37.50;99.90
85164;DHT22;75530;49.300;6.846;2024-02-26T18:49:15;37.00;99.90
85164;DHT22;75530;49.300;6.846;2024-02-26T18:52:16;36.40;99.90
85164;DHT22;75530;49.300;6.846;2024-02-26T18:55:17;35.90;99.90
85164;DHT22;75530;49.300;6.846;2024-02-26T18:58:18;35.40;99.90
85164;DHT22;75530;49.300;6.846;2024-02-26T19:01:18;34.90;99.90
85164;DHT22;75530;49.300;6.846;2024-02-26T19:04:19;34.30;99.90